Eden Valley, Minnesota
Current Conditions -  °F | °C
As of 9:34 PM on Friday 19 Dec 2014 (Local Time) from KPEX Reporting Station
Haze Haze  
Wind Chill: 20°   Ceiling: 900
Heat Index: 28°   Visibility: 5mi
Dew Point: 28°   Wind: 9mph
Humidity: 98%   Direction: 120°ESE
Pressure: 30.09"   Gusts: NA
Location:  45.33°N, 94.55°W
Report Text: KPEX 200334Z AUTO 12008KT 5SM BR OVC009 M02/M02 A3009 RMK AO2 T10201023
Loading
Personal Weather Stations






























Interactive Weather Map New forecast layout! Learn more

10-Day Weather Forecast

Advertisements
Track Severe Weather on mobile